Time;durP1;ratioP1;P1;durP2;ratioP2;P2;SDS_P1;SDS_P2;PMS_P1;PMS_P2;Temp;Humidity;BMP_temperature;BMP_pressure;BME280_temperature;BME280_humidity;BME280_pressure;Samples;Min_cycle;Max_cycle;Signal;HPM_P1;HPM_P2
2021/04/12 00:00:22;;;;;;;45.92;19.50;;;;;;;7.77;53.22;98346.97;5007471;28;20032;-75
2021/04/12 00:03:00;;;;;;;41.20;18.90;;;;;;;7.70;53.01;98351.94;5008072;28;20099;-75
2021/04/12 00:05:35;;;;;;;39.35;18.35;;;;;;;7.62;52.84;98358.78;5008874;28;20473;-75
2021/04/12 00:08:08;;;;;;;48.60;22.42;;;;;;;7.56;53.26;98355.28;5006176;28;20109;-75
2021/04/12 00:10:57;;;;;;;71.38;28.90;;;;;;;7.49;52.93;98356.69;5006827;28;20056;-75
2021/04/12 00:14:04;;;;;;;70.22;29.25;;;;;;;7.41;53.20;98360.78;5007449;28;20126;-75
2021/04/12 00:16:46;;;;;;;77.22;30.83;;;;;;;7.32;53.31;98357.81;5015969;28;20038;-74
2021/04/12 00:19:23;;;;;;;69.72;27.80;;;;;;;7.24;53.16;98359.19;5006265;28;20022;-75
2021/04/12 00:21:48;;;;;;;62.45;24.92;;;;;;;7.17;53.54;98361.38;5010109;28;20171;-75
2021/04/12 00:24:36;;;;;;;55.40;22.98;;;;;;;7.10;53.62;98355.41;5009383;28;20448;-75
2021/04/12 00:27:18;;;;;;;58.00;25.42;;;;;;;7.07;54.15;98354.06;5005147;28;20026;-75
2021/04/12 00:30:02;;;;;;;67.45;31.30;;;;;;;7.02;54.13;98356.78;5009055;28;20481;-75
2021/04/12 00:32:44;;;;;;;67.50;28.63;;;;;;;6.98;54.38;98351.06;5007866;28;20034;-75
2021/04/12 00:35:26;;;;;;;52.72;23.17;;;;;;;6.96;53.92;98353.22;5006734;28;20142;-75
2021/04/12 00:38:02;;;;;;;47.45;21.77;;;;;;;6.90;54.33;98348.06;5007999;28;20486;-75
2021/04/12 00:41:11;;;;;;;42.53;20.83;;;;;;;6.83;54.12;98348.38;5008001;28;20030;-75
2021/04/12 00:43:48;;;;;;;43.28;20.50;;;;;;;6.74;54.19;98345.34;5008832;28;20030;-75
2021/04/12 00:46:52;;;;;;;45.78;20.70;;;;;;;6.70;54.55;98345.09;5008873;28;20033;-76
2021/04/12 00:49:29;;;;;;;39.08;18.00;;;;;;;6.72;54.81;98342.13;5012955;28;20137;-74
2021/04/12 00:52:07;;;;;;;37.25;16.77;;;;;;;6.73;54.58;98338.25;5006406;28;20026;-74
2021/04/12 00:54:58;;;;;;;38.58;16.27;;;;;;;6.74;54.92;98341.81;5008627;28;20037;-74
2021/04/12 00:58:05;;;;;;;35.92;15.65;;;;;;;6.74;54.87;98337.19;5005601;28;20050;-77
2021/04/12 01:00:37;;;;;;;32.20;14.45;;;;;;;6.72;54.92;98342.13;5007798;28;20026;-74
2021/04/12 01:03:18;;;;;;;32.92;16.63;;;;;;;6.70;54.86;98338.84;5008391;28;20026;-74
2021/04/12 01:05:48;;;;;;;39.67;19.02;;;;;;;6.70;55.07;98334.19;5006770;28;20038;-74
2021/04/12 01:08:43;;;;;;;36.45;16.83;;;;;;;6.71;55.25;98337.75;5008245;28;20109;-73
2021/04/12 01:11:27;;;;;;;38.35;16.48;;;;;;;6.70;55.59;98339.63;4990293;28;20038;-74
2021/04/12 01:14:14;;;;;;;35.35;16.55;;;;;;;6.71;55.22;98340.47;4990562;28;20474;-76
2021/04/12 01:17:06;;;;;;;36.03;17.27;;;;;;;6.67;55.50;98337.47;5006787;28;20073;-74
2021/04/12 01:20:02;;;;;;;36.70;17.23;;;;;;;6.65;55.24;98333.38;5007456;28;20030;-74
2021/04/12 01:22:44;;;;;;;42.08;19.17;;;;;;;6.62;55.48;98339.38;5006842;28;20034;-74
2021/04/12 01:25:29;;;;;;;40.10;18.40;;;;;;;6.58;55.48;98336.38;5006237;28;20030;-74
2021/04/12 01:28:38;;;;;;;39.60;17.85;;;;;;;6.55;55.60;98334.19;5007910;28;20104;-74
2021/04/12 01:31:26;;;;;;;40.05;17.17;;;;;;;6.52;55.73;98330.13;5006105;28;20091;-77
2021/04/12 01:34:09;;;;;;;37.28;17.13;;;;;;;6.48;55.69;98331.75;5007557;28;20026;-75
2021/04/12 01:37:04;;;;;;;43.67;20.75;;;;;;;6.44;55.40;98327.94;5007758;28;20026;-75
2021/04/12 01:39:29;;;;;;;44.60;21.48;;;;;;;6.44;56.17;98325.19;4966536;28;20432;-76
2021/04/12 01:42:08;;;;;;;42.58;21.55;;;;;;;6.43;55.44;98325.50;5007914;28;20116;-74
2021/04/12 01:45:05;;;;;;;42.95;21.90;;;;;;;6.43;55.70;98333.66;5007788;28;20030;-74
2021/04/12 01:47:48;;;;;;;34.10;17.45;;;;;;;6.42;55.78;98335.56;5010524;28;20057;-74
2021/04/12 01:50:51;;;;;;;31.52;15.43;;;;;;;6.38;55.49;98335.28;5010894;28;20105;-74
2021/04/12 01:53:41;;;;;;;30.92;15.45;;;;;;;6.44;56.31;98344.28;5010920;28;20033;-74
2021/04/12 01:56:24;;;;;;;29.38;13.93;;;;;;;6.45;56.26;98340.47;5010125;28;20033;-74
2021/04/12 01:59:02;;;;;;;34.90;15.90;;;;;;;6.39;56.33;98338.81;4975608;28;20394;-75
2021/04/12 02:01:48;;;;;;;38.53;17.75;;;;;;;6.33;56.31;98326.28;5003001;28;20110;-75
2021/04/12 02:04:44;;;;;;;39.45;18.10;;;;;;;6.32;56.44;98332.81;5012340;28;20041;-74
2021/04/12 02:07:23;;;;;;;40.25;18.77;;;;;;;6.28;56.28;98332.56;5009385;28;20054;-74
2021/04/12 02:10:37;;;;;;;44.80;20.23;;;;;;;6.21;56.41;98330.09;5011336;28;20032;-74
2021/04/12 02:13:15;;;;;;;42.17;20.02;;;;;;;6.18;56.17;98340.72;5009337;28;20037;-74
2021/04/12 02:15:58;;;;;;;41.75;18.73;;;;;;;6.18;56.81;98341.53;5006339;28;20030;-73
2021/04/12 02:18:30;;;;;;;36.17;17.67;;;;;;;6.16;56.82;98340.16;5009049;28;20032;-74
2021/04/12 02:21:02;;;;;;;37.40;18.02;;;;;;;6.10;56.45;98331.16;5007206;28;20112;-74
2021/04/12 02:23:48;;;;;;;41.05;17.88;;;;;;;6.05;56.92;98333.88;5010640;28;20051;-73
2021/04/12 02:26:39;;;;;;;34.10;16.05;;;;;;;6.07;56.33;98329.00;5010354;28;20034;-73
2021/04/12 02:29:28;;;;;;;35.50;16.80;;;;;;;6.05;57.04;98332.00;4956842;28;20045;-74
2021/04/12 02:32:45;;;;;;;39.85;17.35;;;;;;;6.07;56.82;98332.53;5008786;28;20029;-73
2021/04/12 02:35:26;;;;;;;38.17;17.17;;;;;;;6.04;57.11;98332.25;4990704;28;20121;-73
2021/04/12 02:38:07;;;;;;;33.20;16.40;;;;;;;6.02;56.82;98323.53;5008478;28;20041;-74
2021/04/12 02:40:52;;;;;;;34.30;15.57;;;;;;;5.95;56.72;98329.22;5008469;28;20495;-74
2021/04/12 02:43:43;;;;;;;33.97;16.40;;;;;;;5.92;57.10;98327.03;4992217;28;20030;-74
2021/04/12 02:46:46;;;;;;;33.20;15.77;;;;;;;5.86;57.27;98315.31;5010372;28;20574;-73
2021/04/12 02:49:29;;;;;;;30.85;16.52;;;;;;;5.77;57.29;98323.16;5008361;28;20034;-73
2021/04/12 02:52:18;;;;;;;34.05;16.52;;;;;;;5.73;57.17;98321.25;5006662;28;20420;-74
2021/04/12 02:54:59;;;;;;;30.52;15.98;;;;;;;5.70;56.98;98324.53;5009633;28;20392;-73
2021/04/12 02:57:43;;;;;;;35.97;17.00;;;;;;;5.63;57.43;98325.59;5007155;28;20420;-74
2021/04/12 03:00:32;;;;;;;31.70;16.30;;;;;;;5.60;57.66;98320.66;5008808;28;20038;-73
2021/04/12 03:03:03;;;;;;;38.00;19.08;;;;;;;5.56;57.64;98327.72;5009965;28;20079;-73
2021/04/12 03:06:06;;;;;;;41.88;20.52;;;;;;;5.49;57.34;98327.19;5008909;28;20046;-74
2021/04/12 03:08:42;;;;;;;45.75;21.50;;;;;;;5.46;57.24;98330.44;5008998;28;20064;-74
2021/04/12 03:11:44;;;;;;;47.13;22.20;;;;;;;5.47;57.56;98327.44;5008696;28;20060;-74
2021/04/12 03:14:24;;;;;;;49.05;22.13;;;;;;;5.44;57.61;98322.53;5009070;28;20061;-74
2021/04/12 03:17:13;;;;;;;50.13;23.25;;;;;;;5.39;57.96;98322.50;5009511;28;20041;-73
2021/04/12 03:19:47;;;;;;;42.05;19.27;;;;;;;5.31;57.71;98320.28;5009830;28;20033;-73
2021/04/12 03:22:34;;;;;;;44.67;19.95;;;;;;;5.27;57.56;98314.56;5010828;28;20018;-74
2021/04/12 03:25:35;;;;;;;41.25;19.02;;;;;;;5.25;58.43;98314.00;4992681;28;20065;-74
2021/04/12 03:28:07;;;;;;;42.00;19.30;;;;;;;5.25;58.06;98318.66;5016544;28;20046;-74
2021/04/12 03:30:54;;;;;;;41.60;20.55;;;;;;;5.21;58.05;98310.19;5009765;28;20021;-74
2021/04/12 03:33:26;;;;;;;42.70;19.83;;;;;;;5.19;58.19;98313.19;5007038;28;20030;-73
2021/04/12 03:35:54;;;;;;;43.17;21.58;;;;;;;5.15;57.83;98319.38;4991778;28;20366;-74
2021/04/12 03:38:41;;;;;;;46.00;22.48;;;;;;;5.10;57.76;98312.03;5005107;28;20030;-74
2021/04/12 03:41:12;;;;;;;48.55;22.02;;;;;;;5.06;58.39;98308.19;5008108;28;20071;-74
2021/04/12 03:44:11;;;;;;;43.53;22.05;;;;;;;5.03;58.47;98304.13;5009668;28;20037;-74
2021/04/12 03:47:07;;;;;;;44.50;21.85;;;;;;;5.02;58.11;98310.66;5009573;28;20041;-74
2021/04/12 03:50:07;;;;;;;41.60;21.23;;;;;;;4.98;58.87;98314.13;5008751;28;20033;-74
2021/04/12 03:53:00;;;;;;;47.28;22.98;;;;;;;4.95;58.65;98306.50;4991247;28;20507;-74
2021/04/12 03:55:50;;;;;;;42.65;22.67;;;;;;;4.92;59.12;98307.84;5006336;28;20049;-74
2021/04/12 03:58:45;;;;;;;44.97;22.00;;;;;;;4.86;59.14;98311.63;5008526;28;20091;-74
2021/04/12 04:01:16;;;;;;;49.67;23.23;;;;;;;4.90;58.57;98318.16;5008645;28;20105;-74
2021/04/12 04:04:12;;;;;;;46.47;22.65;;;;;;;4.91;59.19;98323.34;5007241;28;20030;-74
2021/04/12 04:06:56;;;;;;;47.80;22.15;;;;;;;4.87;59.19;98321.41;5008270;28;20136;-78
2021/04/12 04:09:46;;;;;;;45.38;23.33;;;;;;;4.85;59.21;98321.69;4991195;28;20021;-78
2021/04/12 04:12:38;;;;;;;45.22;22.70;;;;;;;4.80;59.14;98331.69;5008084;28;20394;-78
2021/04/12 04:15:18;;;;;;;49.15;23.55;;;;;;;4.76;58.80;98332.22;5006189;28;20083;-77
2021/04/12 04:17:59;;;;;;;;;;;;;;;4.79;58.81;98333.59;5009087;28;20032;-77
2021/04/12 04:20:27;;;;;;;45.47;20.92;;;;;;;4.76;58.76;98340.34;5008510;28;19968;-78
2021/04/12 04:23:14;;;;;;;45.78;23.17;;;;;;;4.72;58.70;98341.16;5007836;28;20034;-75
2021/04/12 04:26:16;;;;;;;50.47;24.83;;;;;;;4.72;59.08;98349.31;5006010;28;20033;-75
2021/04/12 04:28:47;;;;;;;48.60;23.25;;;;;;;4.73;59.55;98348.22;5004729;28;20369;-75
2021/04/12 04:31:41;;;;;;;49.58;23.95;;;;;;;4.74;59.64;98358.00;5008841;28;20477;-76
2021/04/12 04:34:27;;;;;;;58.13;24.70;;;;;;;4.72;59.08;98352.03;5008916;28;20038;-76
2021/04/12 04:37:35;;;;;;;55.55;25.48;;;;;;;4.73;59.67;98350.94;4993618;28;20394;-77
2021/04/12 04:40:24;;;;;;;55.08;24.83;;;;;;;4.75;59.49;98352.31;5000384;28;20035;-79
2021/04/12 04:43:20;;;;;;;52.00;24.67;;;;;;;4.81;59.28;98358.63;4997933;28;20052;-75
2021/04/12 04:46:01;;;;;;;60.28;25.48;;;;;;;4.84;59.44;98362.69;4973220;28;20069;-74
2021/04/12 04:48:56;;;;;;;54.85;25.35;;;;;;;4.88;60.01;98370.09;4990859;28;20030;-75
2021/04/12 04:52:03;;;;;;;54.05;25.48;;;;;;;4.95;59.61;98377.16;4998887;28;20088;-75
2021/04/12 04:54:41;;;;;;;103.80;52.72;;;;;;;5.01;59.67;98374.25;5000752;28;20084;-75
2021/04/12 04:57:21;;;;;;;120.38;63.25;;;;;;;5.07;59.75;98391.41;5007786;28;20038;-75
2021/04/12 05:00:21;;;;;;;130.90;67.85;;;;;;;5.16;59.79;98391.72;4982785;28;20124;-75
2021/04/12 05:03:21;;;;;;;119.20;51.58;;;;;;;5.24;59.74;98385.78;5003831;28;20041;-74
2021/04/12 05:06:05;;;;;;;112.97;49.85;;;;;;;5.37;60.62;98389.94;4993761;28;20080;-74
2021/04/12 05:08:52;;;;;;;115.57;52.03;;;;;;;5.48;60.01;98396.28;4990550;28;20038;-74
2021/04/12 05:11:36;;;;;;;116.00;49.78;;;;;;;5.58;60.67;98393.56;5000443;28;20038;-74
2021/04/12 05:14:32;;;;;;;70.97;33.65;;;;;;;5.71;60.74;98394.19;5008120;28;20074;-74
2021/04/12 05:17:31;;;;;;;65.22;34.22;;;;;;;5.84;60.77;98390.16;5004848;28;20044;-74
2021/04/12 05:20:21;;;;;;;57.35;27.63;;;;;;;5.97;60.90;98385.00;5007512;28;20098;-73
2021/04/12 05:23:07;;;;;;;57.42;29.85;;;;;;;6.11;60.63;98390.00;5007049;28;20362;-74
2021/04/12 05:25:44;;;;;;;67.30;33.45;;;;;;;6.27;60.26;98387.31;5010041;28;20402;-74
2021/04/12 05:28:31;;;;;;;66.35;32.95;;;;;;;6.42;60.31;98387.31;5009603;28;20026;-76
2021/04/12 05:31:25;;;;;;;68.75;32.20;;;;;;;6.57;60.54;98382.97;5010385;28;20075;-75
2021/04/12 05:34:09;;;;;;;67.53;31.27;;;;;;;6.68;60.33;98390.06;5008914;28;20105;-73
2021/04/12 05:36:54;;;;;;;55.83;29.52;;;;;;;6.81;60.29;98391.44;5009938;28;20049;-75
2021/04/12 05:39:32;;;;;;;48.67;24.65;;;;;;;6.92;60.69;98398.53;5012606;28;20105;-74
2021/04/12 05:42:06;;;;;;;44.20;24.10;;;;;;;7.02;60.48;98400.41;5008983;28;20054;-74
2021/04/12 05:44:42;;;;;;;41.45;22.77;;;;;;;7.13;60.18;98402.03;4988254;28;20033;-74
2021/04/12 05:48:12;;;;;;;44.33;23.27;;;;;;;7.26;60.43;98399.81;4986581;28;20497;-74
2021/04/12 05:50:55;;;;;;;;;;;;;;;7.38;60.26;98405.81;4915980;29;20044;-75
2021/04/12 05:53:36;;;;;;;41.30;22.58;;;;;;;7.46;60.11;98409.88;5010742;28;19994;-75
2021/04/12 05:56:25;;;;;;;46.25;24.50;;;;;;;7.56;60.18;98406.28;5008451;28;20105;-75
2021/04/12 05:59:28;;;;;;;45.30;24.08;;;;;;;7.67;59.90;98399.72;5009802;28;20075;-78
2021/04/12 06:01:59;;;;;;;46.92;25.67;;;;;;;7.77;60.07;98400.78;4990445;28;20099;-78
2021/04/12 06:04:34;;;;;;;51.28;30.15;;;;;;;7.89;59.87;98412.22;4992566;28;20026;-78
2021/04/12 06:07:21;;;;;;;54.92;27.60;;;;;;;8.01;60.02;98411.88;4990659;28;20039;-78
2021/04/12 06:10:33;;;;;;;57.30;30.35;;;;;;;8.19;59.95;98419.41;4992912;28;20034;-78
2021/04/12 06:13:01;;;;;;;57.92;33.05;;;;;;;8.36;59.81;98423.69;4992168;28;20038;-78
2021/04/12 06:16:00;;;;;;;44.80;26.70;;;;;;;8.51;59.69;98431.03;4992551;28;20041;-75
2021/04/12 06:18:36;;;;;;;43.95;23.33;;;;;;;8.67;59.59;98430.94;4992811;28;20031;-75
2021/04/12 06:21:20;;;;;;;32.97;19.42;;;;;;;8.81;59.68;98425.63;4992333;28;20466;-75
2021/04/12 06:24:16;;;;;;;34.75;18.48;;;;;;;8.98;59.14;98427.94;4992109;28;20026;-75
2021/04/12 06:27:21;;;;;;;39.50;15.52;;;;;;;9.21;59.03;98429.13;4990922;28;20401;-77
2021/04/12 06:30:16;;;;;;;10.50;4.93;;;;;;;9.46;58.38;98429.97;4990657;28;20048;-77
2021/04/12 06:33:00;;;;;;;7.18;3.65;;;;;;;9.73;58.26;98432.13;4991551;28;20034;-78
2021/04/12 06:36:20;;;;;;;6.53;3.50;;;;;;;9.97;57.62;98440.34;4993091;28;20037;-78
2021/04/12 06:39:02;;;;;;;7.70;4.50;;;;;;;10.20;57.12;98439.78;4976726;28;20026;-79
2021/04/12 06:42:04;;;;;;;9.35;4.07;;;;;;;10.39;55.80;98440.66;4992164;28;20432;-77
2021/04/12 06:45:07;;;;;;;7.38;3.75;;;;;;;10.52;55.71;98441.03;4991980;28;20754;-78
2021/04/12 06:47:56;;;;;;;7.75;4.25;;;;;;;10.67;55.40;98435.31;4992108;28;20030;-78
2021/04/12 06:50:46;;;;;;;15.18;6.38;;;;;;;10.79;55.65;98437.63;4992066;28;20048;-78
2021/04/12 06:53:38;;;;;;;28.75;10.73;;;;;;;10.90;55.06;98441.00;4992085;28;20076;-77
2021/04/12 06:56:21;;;;;;;10.48;4.13;;;;;;;10.97;54.13;98438.69;4992004;28;20416;-76
2021/04/12 06:59:15;;;;;;;16.50;6.60;;;;;;;11.01;54.51;98437.00;4992003;28;20023;-76
2021/04/12 07:01:59;;;;;;;14.32;5.05;;;;;;;11.12;54.00;98443.13;4991964;28;20029;-77
2021/04/12 07:05:01;;;;;;;13.73;5.95;;;;;;;11.22;54.30;98444.06;4991797;28;20080;-76
2021/04/12 07:07:44;;;;;;;10.75;5.20;;;;;;;11.25;52.85;98447.00;4991435;28;20053;-77
2021/04/12 07:10:46;;;;;;;11.75;4.55;;;;;;;11.28;53.01;98443.66;4991918;28;20449;-77
2021/04/12 07:13:35;;;;;;;7.30;3.95;;;;;;;11.31;52.83;98436.78;4989636;28;20035;-77
2021/04/12 07:16:25;;;;;;;8.40;4.25;;;;;;;11.37;52.52;98432.81;4990065;28;20159;-77
2021/04/12 07:19:27;;;;;;;9.73;4.15;;;;;;;11.45;52.45;98431.31;4990756;28;20054;-77
2021/04/12 07:22:08;;;;;;;7.50;3.85;;;;;;;11.49;51.48;98434.25;4990698;28;20058;-77
2021/04/12 07:24:33;;;;;;;6.85;3.75;;;;;;;11.61;52.33;98435.38;4989404;28;20031;-76
2021/04/12 07:27:17;;;;;;;7.53;3.83;;;;;;;11.66;51.89;98430.91;4991000;28;20038;-78
2021/04/12 07:30:07;;;;;;;7.88;3.92;;;;;;;11.72;52.19;98441.50;4991705;28;20031;-78
2021/04/12 07:32:51;;;;;;;;;;;;;;;11.80;51.46;98444.69;4992036;28;20171;-78
2021/04/12 07:35:31;;;;;;;7.43;3.67;;;;;;;11.82;51.03;98443.25;4991778;28;19921;-77
2021/04/12 07:38:34;;;;;;;7.85;3.58;;;;;;;11.86;50.90;98448.94;4991853;28;20097;-78
2021/04/12 07:41:50;;;;;;;7.60;4.53;;;;;;;11.91;50.95;98444.16;4991666;28;20482;-79
2021/04/12 07:44:53;;;;;;;8.85;4.18;;;;;;;12.00;50.93;98463.53;4991131;28;20022;-78
2021/04/12 07:47:54;;;;;;;11.15;4.35;;;;;;;12.10;50.33;98459.75;4991470;28;20383;-78
2021/04/12 07:50:38;;;;;;;7.68;4.30;;;;;;;12.21;51.05;98463.13;4991216;28;20050;-79
2021/04/12 07:53:44;;;;;;;8.02;3.67;;;;;;;12.35;50.65;98463.91;4991146;28;20027;-79
2021/04/12 07:56:34;;;;;;;10.25;4.53;;;;;;;12.42;50.53;98462.66;4990714;28;20023;-78
2021/04/12 07:59:27;;;;;;;11.70;6.25;;;;;;;12.42;50.52;98471.75;4991093;28;20350;-78
2021/04/12 08:02:29;;;;;;;17.52;7.43;;;;;;;12.47;50.26;98479.06;4989636;28;20139;-79
2021/04/12 08:05:16;;;;;;;9.75;6.10;;;;;;;12.46;50.10;98483.75;4990799;28;20038;-78
2021/04/12 08:08:06;;;;;;;9.70;5.97;;;;;;;12.47;50.56;98493.63;4991034;28;20113;-78
2021/04/12 08:10:50;;;;;;;;;;;;;;;12.41;50.78;98486.63;4991381;28;20026;-77
2021/04/12 08:13:33;;;;;;;12.60;8.00;;;;;;;12.48;51.66;98498.00;4990715;28;19998;-77
2021/04/12 08:16:13;;;;;;;11.45;7.47;;;;;;;12.58;52.53;98507.16;4990871;28;20509;-77
2021/04/12 08:19:07;;;;;;;15.20;9.63;;;;;;;12.61;52.20;98498.28;4990623;28;20066;-76
2021/04/12 08:21:32;;;;;;;11.32;6.38;;;;;;;12.58;51.55;98501.66;4990849;28;20107;-76
2021/04/12 08:24:16;;;;;;;10.43;6.78;;;;;;;12.51;51.65;98508.41;4990386;28;20402;-77
2021/04/12 08:27:14;;;;;;;11.63;5.97;;;;;;;12.45;51.52;98500.56;4990406;28;20042;-77
2021/04/12 08:30:03;;;;;;;10.32;6.15;;;;;;;12.46;51.52;98499.44;4990424;28;20040;-77
2021/04/12 08:33:04;;;;;;;9.57;6.13;;;;;;;12.50;51.68;98500.47;4990448;28;20042;-77
2021/04/12 08:35:56;;;;;;;8.98;5.68;;;;;;;12.54;51.59;98495.97;4989878;28;20045;-77
2021/04/12 08:38:30;;;;;;;11.10;6.05;;;;;;;12.66;51.37;98503.69;4990528;28;20031;-78
2021/04/12 08:41:34;;;;;;;10.95;6.30;;;;;;;12.79;51.19;98496.53;4990363;28;20034;-77
2021/04/12 08:44:30;;;;;;;11.13;6.63;;;;;;;12.99;51.30;98506.25;5004942;28;20031;-78
2021/04/12 08:47:28;;;;;;;11.57;6.38;;;;;;;13.12;50.85;98503.75;4990098;28;20032;-76
2021/04/12 08:50:12;;;;;;;9.25;6.15;;;;;;;13.24;50.68;98493.81;4990265;28;20027;-75
2021/04/12 08:52:59;;;;;;;9.38;5.65;;;;;;;13.39;49.89;98505.59;4990043;28;20037;-75
2021/04/12 08:55:45;;;;;;;10.05;5.88;;;;;;;13.45;50.04;98498.81;4990673;28;20053;-75
2021/04/12 08:58:10;;;;;;;10.05;5.95;;;;;;;13.46;49.57;98511.47;4993600;28;20030;-75
2021/04/12 09:00:54;;;;;;;12.52;7.60;;;;;;;13.54;49.98;98509.91;4993387;28;20123;-75
2021/04/12 09:03:22;;;;;;;11.27;6.35;;;;;;;13.62;49.61;98505.56;4993349;28;20031;-75
2021/04/12 09:06:11;;;;;;;12.98;6.40;;;;;;;13.67;49.39;98511.75;4992017;28;20050;-75
2021/04/12 09:09:04;;;;;;;11.63;7.00;;;;;;;13.70;49.19;98502.88;4992990;28;20105;-76
2021/04/12 09:12:00;;;;;;;12.93;7.82;;;;;;;13.73;49.28;98501.44;4993010;28;20056;-75
2021/04/12 09:14:59;;;;;;;10.95;7.32;;;;;;;13.88;48.91;98511.22;4992675;28;20050;-75
2021/04/12 09:18:01;;;;;;;11.75;6.95;;;;;;;13.97;48.36;98508.50;4993112;28;20508;-75
2021/04/12 09:20:45;;;;;;;12.35;7.43;;;;;;;14.03;48.39;98501.72;4993025;28;20442;-74
2021/04/12 09:23:29;;;;;;;18.63;11.77;;;;;;;14.10;48.59;98504.84;4993154;28;20029;-75
2021/04/12 09:26:14;;;;;;;12.43;7.72;;;;;;;14.18;48.00;98505.19;4992838;28;20034;-74
2021/04/12 09:29:02;;;;;;;34.50;23.35;;;;;;;14.26;48.37;98507.97;4992988;28;20022;-74
2021/04/12 09:31:40;;;;;;;10.65;6.78;;;;;;;14.43;48.00;98501.69;4993186;28;20027;-74
2021/04/12 09:34:26;;;;;;;13.80;8.73;;;;;;;14.57;48.12;98515.34;4991779;28;20038;-74
2021/04/12 09:37:03;;;;;;;12.25;6.80;;;;;;;14.77;47.97;98502.13;4992859;28;20101;-75
2021/04/12 09:39:42;;;;;;;12.02;7.35;;;;;;;14.97;47.74;98508.97;4991745;28;20432;-75
2021/04/12 09:42:41;;;;;;;11.70;7.20;;;;;;;15.00;47.02;98504.72;4992753;28;20030;-74
2021/04/12 09:45:06;;;;;;;;;;;;;;;14.89;46.72;98510.56;4992578;28;20042;-75
2021/04/12 09:47:49;;;;;;;12.32;8.20;;;;;;;14.72;46.64;98514.13;4992641;28;19914;-73
2021/04/12 09:50:36;;;;;;;12.30;8.35;;;;;;;14.51;47.24;98502.84;4992328;28;20498;-73
2021/04/12 09:53:12;;;;;;;13.43;8.10;;;;;;;14.38;47.33;98495.53;4992140;28;20113;-74
2021/04/12 09:55:49;;;;;;;12.13;9.00;;;;;;;14.25;47.86;98495.31;4992236;28;20026;-73
2021/04/12 09:58:32;;;;;;;14.25;9.40;;;;;;;14.24;47.90;98496.44;4992545;28;20477;-74
2021/04/12 10:01:08;;;;;;;12.48;9.32;;;;;;;14.35;48.73;98507.19;4992151;28;20031;-73
2021/04/12 10:03:47;;;;;;;13.35;8.10;;;;;;;14.55;48.21;98509.34;4992495;28;20022;-73
2021/04/12 10:06:45;;;;;;;18.90;12.18;;;;;;;14.66;48.15;98509.03;4992387;28;20150;-73
2021/04/12 10:09:29;;;;;;;18.67;12.95;;;;;;;14.71;48.49;98520.75;4992251;28;20026;-73
2021/04/12 10:12:27;;;;;;;27.00;16.60;;;;;;;14.68;48.39;98515.84;4992410;28;20034;-74
2021/04/12 10:15:19;;;;;;;25.52;16.67;;;;;;;14.51;49.39;98522.16;4976779;28;20030;-73
2021/04/12 10:17:53;;;;;;;24.27;15.15;;;;;;;14.38;49.21;98523.91;4992462;28;20034;-72
2021/04/12 10:20:33;;;;;;;27.00;17.73;;;;;;;14.24;49.89;98537.81;4992567;28;20034;-73
2021/04/12 10:23:32;;;;;;;29.58;18.05;;;;;;;14.13;50.31;98522.69;4993023;28;20027;-73
2021/04/12 10:26:03;;;;;;;28.67;17.52;;;;;;;14.12;50.69;98530.16;4992829;28;20038;-72
2021/04/12 10:28:30;;;;;;;28.10;17.20;;;;;;;14.22;51.05;98537.34;4992443;28;20515;-74
2021/04/12 10:31:12;;;;;;;27.05;16.90;;;;;;;14.38;51.20;98534.16;4993604;28;20030;-74
2021/04/12 10:33:44;;;;;;;26.38;15.57;;;;;;;14.40;50.49;98540.16;5009110;28;20037;-71
2021/04/12 10:36:51;;;;;;;25.80;15.40;;;;;;;14.34;49.49;98538.69;4996812;28;20070;-71
2021/04/12 10:39:57;;;;;;;25.33;14.95;;;;;;;14.04;49.50;98536.44;5010428;28;20042;-72
2021/04/12 10:42:50;;;;;;;22.45;14.30;;;;;;;13.86;50.06;98541.06;4993842;28;20036;-71
2021/04/12 10:46:01;;;;;;;19.42;12.82;;;;;;;13.79;50.36;98540.69;5011801;28;20045;-70
2021/04/12 10:48:31;;;;;;;21.88;13.88;;;;;;;13.70;50.93;98535.13;4990739;28;20539;-71
2021/04/12 10:51:02;;;;;;;;;;;;;;;13.62;52.03;98541.41;5004507;28;20053;-71
2021/04/12 10:53:47;;;;;;;28.05;15.35;;;;;;;13.73;52.48;98530.94;4989765;28;19918;-72
2021/04/12 10:56:46;;;;;;;22.58;13.10;;;;;;;13.94;51.76;98539.47;4973499;28;20083;-71
2021/04/12 10:59:14;;;;;;;24.08;14.32;;;;;;;14.09;51.49;98541.81;4991959;28;20018;-71
2021/04/12 11:01:39;;;;;;;23.48;13.85;;;;;;;14.26;50.79;98543.03;4991938;28;20435;-72
2021/04/12 11:04:32;;;;;;;25.02;14.75;;;;;;;14.39;50.86;98542.09;4991912;28;20093;-71
2021/04/12 11:07:16;;;;;;;24.58;15.27;;;;;;;14.58;50.23;98543.78;4991441;28;20073;-72
2021/04/12 11:10:13;;;;;;;31.92;17.10;;;;;;;14.63;50.09;98548.31;4991738;28;20498;-71
2021/04/12 11:13:01;;;;;;;29.13;17.27;;;;;;;14.54;50.31;98540.84;4999849;28;20106;-71
2021/04/12 11:15:39;;;;;;;34.33;18.38;;;;;;;14.54;49.99;98549.13;5010683;28;20616;-70
2021/04/12 11:18:17;;;;;;;31.60;18.70;;;;;;;14.47;50.62;98554.28;5009977;28;20095;-71
2021/04/12 11:20:55;;;;;;;28.65;17.75;;;;;;;14.41;50.85;98558.34;5010665;28;20531;-72
2021/04/12 11:23:47;;;;;;;33.05;19.40;;;;;;;14.26;50.82;98568.66;5010574;28;20034;-71
2021/04/12 11:26:46;;;;;;;31.98;19.08;;;;;;;14.24;50.99;98564.63;5010566;28;20069;-71
2021/04/12 11:29:28;;;;;;;30.97;18.07;;;;;;;14.27;51.10;98570.28;5010368;28;20104;-71
2021/04/12 11:32:08;;;;;;;32.40;17.50;;;;;;;14.26;51.06;98576.16;5010360;28;20021;-71
2021/04/12 11:34:41;;;;;;;31.05;19.77;;;;;;;14.19;51.33;98575.78;5010720;28;20026;-71
2021/04/12 11:37:28;;;;;;;29.73;18.40;;;;;;;14.00;51.46;98587.84;5010377;28;20061;-72
2021/04/12 11:40:16;;;;;;;35.33;19.40;;;;;;;13.76;51.72;98593.69;5010077;28;20030;-72
2021/04/12 11:42:49;;;;;;;29.73;18.30;;;;;;;13.55;52.09;98586.75;5010665;28;20033;-72
2021/04/12 11:45:21;;;;;;;49.75;30.58;;;;;;;13.40;52.89;98590.66;4993739;28;20034;-72
2021/04/12 11:47:46;;;;;;;34.47;21.20;;;;;;;13.25;53.41;98593.75;4959666;28;20037;-72
2021/04/12 11:50:14;;;;;;;35.10;20.65;;;;;;;13.03;53.80;98598.09;4979804;28;20038;-72
2021/04/12 11:52:57;;;;;;;34.60;20.73;;;;;;;12.99;54.53;98604.56;4982617;28;20026;-73
2021/04/12 11:55:30;;;;;;;37.50;20.27;;;;;;;13.00;54.61;98606.97;4982456;28;20062;-74
2021/04/12 11:58:04;;;;;;;39.92;20.80;;;;;;;13.04;55.16;98619.00;4984889;28;20034;-74
2021/04/12 12:00:33;;;;;;;35.75;20.55;;;;;;;13.10;54.93;98622.47;4984675;28;20030;-73
2021/04/12 12:03:17;;;;;;;35.25;21.10;;;;;;;13.01;54.99;98619.63;4984973;28;20038;-75
2021/04/12 12:06:04;;;;;;;31.45;19.20;;;;;;;12.85;54.56;98613.63;4977308;28;20142;-75
2021/04/12 12:08:55;;;;;;;34.97;19.55;;;;;;;12.58;55.49;98630.97;4973066;28;20018;-76
2021/04/12 12:11:53;;;;;;;30.58;18.13;;;;;;;12.30;56.09;98625.44;4979198;28;20030;-74
2021/04/12 12:14:18;;;;;;;30.45;17.80;;;;;;;12.18;55.99;98635.00;4986639;28;20552;-74
2021/04/12 12:16:44;;;;;;;28.98;17.52;;;;;;;12.16;56.77;98647.44;4983376;28;20027;-75
2021/04/12 12:19:12;;;;;;;29.70;17.23;;;;;;;12.12;56.66;98633.47;4979815;28;20789;-75
2021/04/12 12:21:49;;;;;;;31.92;18.80;;;;;;;12.06;57.40;98641.00;4982996;28;20043;-75
2021/04/12 12:24:22;;;;;;;35.15;17.63;;;;;;;11.88;57.04;98641.81;4984172;28;20038;-76
2021/04/12 12:26:56;;;;;;;35.90;17.55;;;;;;;11.57;57.61;98639.56;4978348;28;20030;-75
2021/04/12 12:29:27;;;;;;;30.20;16.25;;;;;;;11.36;58.08;98641.78;4975199;28;20038;-76
2021/04/12 12:32:09;;;;;;;29.42;16.30;;;;;;;11.24;57.74;98645.00;4975868;28;20054;-75
2021/04/12 12:34:51;;;;;;;25.25;16.05;;;;;;;11.07;59.40;98645.50;4983514;28;20490;-74
2021/04/12 12:37:25;;;;;;;25.75;15.23;;;;;;;10.75;59.96;98644.25;4984309;28;20026;-75
2021/04/12 12:39:54;;;;;;;33.25;19.40;;;;;;;10.57;60.15;98642.00;4982959;28;20454;-75
2021/04/12 12:42:37;;;;;;;31.60;18.50;;;;;;;10.52;61.86;98646.69;4981757;28;20088;-74
2021/04/12 12:45:12;;;;;;;23.77;14.65;;;;;;;10.66;62.29;98633.94;4979296;28;20669;-75
2021/04/12 12:47:45;;;;;;;29.10;15.35;;;;;;;10.78;62.16;98655.44;4979606;28;20395;-74
2021/04/12 12:50:22;;;;;;;25.50;15.02;;;;;;;10.76;61.29;98643.16;4976204;28;20025;-74
2021/04/12 12:52:55;;;;;;;22.73;13.95;;;;;;;10.65;61.54;98656.97;4976885;28;20532;-74